Time;durP1;ratioP1;P1;durP2;ratioP2;P2;SDS_P1;SDS_P2;PMS_P1;PMS_P2;Temp;Humidity;BMP_temperature;BMP_pressure;BME280_temperature;BME280_humidity;BME280_pressure;Samples;Min_cycle;Max_cycle;Signal;HPM_P1;HPM_P2
2021/01/31 00:00:28;;;;;;;9.95;6.53;;;;;;;1.17;88.89;98933.97;5048663;28;20206;-75
2021/01/31 00:02:54;;;;;;;10.13;5.82;;;;;;;1.17;88.85;98939.19;5047665;28;20040;-75
2021/01/31 00:05:21;;;;;;;7.93;5.60;;;;;;;1.13;88.68;98943.03;5047786;28;20029;-75
2021/01/31 00:07:46;;;;;;;7.20;5.05;;;;;;;1.17;90.04;98947.84;5048620;28;20041;-74
2021/01/31 00:10:14;;;;;;;5.68;4.55;;;;;;;1.14;91.00;98955.06;5048316;28;20037;-75
2021/01/31 00:12:39;;;;;;;6.30;4.40;;;;;;;1.13;90.09;98951.66;5048885;28;20025;-75
2021/01/31 00:15:08;;;;;;;7.13;5.22;;;;;;;1.10;90.05;98957.13;5049359;28;20033;-75
2021/01/31 00:17:34;;;;;;;6.88;4.72;;;;;;;1.16;89.06;98953.16;5049168;28;20119;-74
2021/01/31 00:19:59;;;;;;;7.30;5.03;;;;;;;1.23;88.79;98957.72;5049163;28;20167;-75
2021/01/31 00:22:25;;;;;;;8.40;5.90;;;;;;;1.25;87.26;98955.00;5048204;28;20037;-74
2021/01/31 00:24:53;;;;;;;8.43;5.50;;;;;;;1.26;87.43;98948.81;5047099;28;20029;-75
2021/01/31 00:27:20;;;;;;;7.13;5.13;;;;;;;1.22;88.15;98953.47;5048468;28;20045;-74
2021/01/31 00:29:45;;;;;;;7.45;5.55;;;;;;;1.30;86.67;98947.59;5048035;28;20041;-74
2021/01/31 00:32:10;;;;;;;7.88;5.60;;;;;;;1.22;86.72;98945.66;5048283;28;20037;-75
2021/01/31 00:34:36;;;;;;;7.28;5.43;;;;;;;1.18;86.77;98941.66;5049268;28;20036;-74
2021/01/31 00:37:01;;;;;;;7.78;5.35;;;;;;;1.16;87.48;98945.34;5049551;28;20033;-75
2021/01/31 00:39:26;;;;;;;8.27;5.53;;;;;;;1.11;86.91;98950.13;5049372;28;20512;-74
2021/01/31 00:41:52;;;;;;;7.43;5.15;;;;;;;1.11;87.81;98952.75;5047256;28;20037;-75
2021/01/31 00:44:17;;;;;;;6.35;4.70;;;;;;;1.08;88.01;98948.63;5046542;28;20076;-75
2021/01/31 00:46:42;;;;;;;6.97;5.32;;;;;;;1.15;86.47;98954.13;5047790;28;20178;-74
2021/01/31 00:49:09;;;;;;;7.68;5.53;;;;;;;1.14;87.15;98957.69;5048245;28;20037;-75
2021/01/31 00:51:35;;;;;;;7.22;5.15;;;;;;;1.13;87.26;98956.03;5047588;28;20025;-74
2021/01/31 00:54:00;;;;;;;5.70;4.20;;;;;;;1.11;88.00;98950.97;5043527;28;20041;-75
2021/01/31 00:56:25;;;;;;;7.43;5.57;;;;;;;1.18;86.56;98953.88;5048618;28;20029;-75
2021/01/31 00:58:51;;;;;;;7.32;5.13;;;;;;;1.16;86.99;98946.19;5049400;28;20421;-75
2021/01/31 01:01:18;;;;;;;7.05;5.22;;;;;;;1.15;88.07;98956.75;5048836;28;20029;-75
2021/01/31 01:03:44;;;;;;;7.53;5.68;;;;;;;1.18;86.17;98954.69;5046658;28;20490;-75
2021/01/31 01:06:09;;;;;;;6.88;4.97;;;;;;;1.18;86.39;98951.25;5052096;28;20087;-75
2021/01/31 01:08:35;;;;;;;8.70;6.10;;;;;;;1.17;85.89;98960.00;5052865;28;20086;-74
2021/01/31 01:11:01;;;;;;;8.05;6.10;;;;;;;1.15;85.91;98954.13;5053361;28;20032;-74
2021/01/31 01:13:27;;;;;;;8.27;5.68;;;;;;;1.12;86.49;98968.25;5051510;28;20041;-74
2021/01/31 01:15:54;;;;;;;9.70;5.93;;;;;;;1.16;86.08;98960.97;5051888;28;20033;-75
2021/01/31 01:18:22;;;;;;;7.68;5.65;;;;;;;1.16;85.97;98956.59;5052218;28;20640;-75
2021/01/31 01:20:48;;;;;;;7.40;5.25;;;;;;;1.14;85.61;98962.88;5052322;28;20052;-74
2021/01/31 01:23:15;;;;;;;8.23;6.07;;;;;;;1.17;85.67;98960.88;5052491;28;20108;-75
2021/01/31 01:25:41;;;;;;;7.43;5.55;;;;;;;1.10;86.21;98969.28;5051398;28;20041;-74
2021/01/31 01:28:08;;;;;;;9.23;6.65;;;;;;;1.14;85.80;98968.09;5050740;28;20033;-75
2021/01/31 01:30:35;;;;;;;8.75;6.15;;;;;;;1.15;86.80;98975.78;5051418;28;20040;-75
2021/01/31 01:33:03;;;;;;;9.38;6.82;;;;;;;1.22;85.21;98971.72;5050767;28;20041;-75
2021/01/31 01:35:30;;;;;;;6.93;5.30;;;;;;;1.17;87.22;98973.03;5051133;28;20418;-74
2021/01/31 01:37:57;;;;;;;7.45;5.50;;;;;;;1.17;86.02;98976.47;5051665;28;20253;-75
2021/01/31 01:40:49;;;;;;;6.70;5.15;;;;;;;1.20;86.75;98978.00;5050666;28;20048;-74
2021/01/31 01:43:18;;;;;;;8.75;6.15;;;;;;;1.22;85.73;98979.50;5046426;28;20033;-75
2021/01/31 01:45:45;;;;;;;7.78;6.15;;;;;;;1.05;85.93;98988.75;5051846;28;20112;-74
2021/01/31 01:48:15;;;;;;;6.95;4.88;;;;;;;1.13;86.07;98992.50;5059340;28;20393;-74
2021/01/31 01:50:53;;;;;;;7.75;5.28;;;;;;;1.18;86.01;98990.31;5052667;28;20029;-74
2021/01/31 01:53:23;;;;;;;7.90;5.53;;;;;;;1.17;84.95;98993.84;5052256;28;20147;-75
2021/01/31 01:55:51;;;;;;;7.63;6.00;;;;;;;1.22;85.44;99002.13;5049225;28;20509;-74
2021/01/31 01:58:19;;;;;;;7.55;5.15;;;;;;;1.20;85.71;99009.25;5051744;28;20033;-74
2021/01/31 02:00:48;;;;;;;6.25;4.85;;;;;;;1.08;87.62;99015.50;5050757;28;20090;-74
2021/01/31 02:03:21;;;;;;;8.30;5.85;;;;;;;1.04;87.43;99013.13;5051796;28;20047;-74
2021/01/31 02:05:56;;;;;;;7.45;5.55;;;;;;;1.14;86.23;99018.38;5043901;28;20056;-75
2021/01/31 02:08:21;;;;;;;8.52;6.30;;;;;;;1.19;85.65;99007.56;5054213;28;20063;-75
2021/01/31 02:10:48;;;;;;;8.18;6.13;;;;;;;1.34;83.12;99005.47;5053807;28;20032;-74
2021/01/31 02:13:14;;;;;;;10.02;7.25;;;;;;;1.23;84.77;99001.97;5050541;28;20533;-74
2021/01/31 02:15:40;;;;;;;8.82;6.60;;;;;;;1.16;84.21;98995.66;5052225;28;20055;-74
2021/01/31 02:18:50;;;;;;;8.30;6.22;;;;;;;1.21;84.36;98997.84;5051507;28;20036;-75
2021/01/31 02:21:22;;;;;;;8.98;6.38;;;;;;;1.19;84.59;98999.75;5035273;28;20079;-74
2021/01/31 02:24:09;;;;;;;8.35;5.55;;;;;;;1.16;86.76;98997.44;5051898;28;20037;-74
2021/01/31 02:27:00;;;;;;;8.30;5.80;;;;;;;1.21;83.85;99000.47;5049845;28;20043;-75
2021/01/31 02:29:32;;;;;;;;;;;;;;;1.19;84.07;99003.22;5052065;28;20201;-74
2021/01/31 02:32:46;;;;;;;7.43;5.60;;;;;;;1.19;84.71;99011.03;5050672;28;20266;-75
2021/01/31 02:35:19;;;;;;;8.20;5.60;;;;;;;1.19;85.73;99013.63;5046704;28;20037;-74
2021/01/31 02:37:56;;;;;;;9.23;6.25;;;;;;;1.20;85.34;99017.06;5051527;28;20033;-75
2021/01/31 02:40:54;;;;;;;7.30;5.30;;;;;;;1.25;85.10;99017.47;5049618;28;20040;-74
2021/01/31 02:43:28;;;;;;;10.10;7.70;;;;;;;1.32;84.19;99023.00;5050433;28;20363;-75
2021/01/31 02:46:33;;;;;;;7.85;5.88;;;;;;;1.31;83.99;99023.94;5049939;28;20036;-75
2021/01/31 02:49:22;;;;;;;8.30;6.05;;;;;;;1.25;84.66;99028.72;5049650;28;20116;-74
2021/01/31 02:51:53;;;;;;;8.88;6.30;;;;;;;1.28;83.91;99028.44;5042972;28;20111;-74
2021/01/31 02:54:39;;;;;;;7.80;5.82;;;;;;;1.25;84.67;99023.50;5047905;28;20151;-74
2021/01/31 02:57:15;;;;;;;7.88;5.38;;;;;;;1.23;84.60;99035.81;5049209;28;20033;-75
2021/01/31 02:59:49;;;;;;;8.48;6.28;;;;;;;1.31;83.84;99037.81;5049957;28;20128;-75
2021/01/31 03:02:40;;;;;;;8.55;5.90;;;;;;;1.32;83.00;99041.22;5050713;28;20025;-74
2021/01/31 03:05:13;;;;;;;7.90;5.38;;;;;;;1.25;86.31;99038.31;5048485;28;20269;-74
2021/01/31 03:08:13;;;;;;;7.82;5.85;;;;;;;1.19;86.01;99036.22;5047316;28;20390;-74
2021/01/31 03:11:03;;;;;;;6.38;4.28;;;;;;;1.22;85.72;99034.19;5043925;28;20041;-74
2021/01/31 03:13:59;;;;;;;6.63;5.05;;;;;;;1.25;84.93;99022.69;5050857;28;20585;-74
2021/01/31 03:16:36;;;;;;;8.18;5.82;;;;;;;1.28;84.11;99019.81;5049934;28;20041;-74
2021/01/31 03:19:10;;;;;;;8.02;6.30;;;;;;;1.26;86.08;99013.91;5051063;28;20041;-74
2021/01/31 03:21:39;;;;;;;7.38;5.05;;;;;;;1.23;87.64;99020.22;5050848;28;20517;-74
2021/01/31 03:24:28;;;;;;;11.48;7.43;;;;;;;1.32;83.46;99021.22;5049656;28;20520;-74
2021/01/31 03:27:00;;;;;;;10.18;7.60;;;;;;;1.34;82.21;99019.31;5045020;28;20033;-74
2021/01/31 03:29:26;;;;;;;11.00;7.47;;;;;;;1.36;81.64;99027.81;5049634;28;20098;-74
2021/01/31 03:31:58;;;;;;;10.57;7.65;;;;;;;1.41;79.96;99027.44;5049576;28;20112;-74
2021/01/31 03:34:30;;;;;;;9.85;6.82;;;;;;;1.20;81.99;99023.06;5047874;28;20040;-74
2021/01/31 03:37:00;;;;;;;11.95;8.32;;;;;;;1.32;80.71;99026.44;5050523;28;20036;-74
2021/01/31 03:39:28;;;;;;;10.40;7.72;;;;;;;1.21;82.43;99032.53;5050092;28;20037;-74
2021/01/31 03:41:54;;;;;;;10.85;8.07;;;;;;;1.27;80.88;99026.81;5050591;28;20080;-73
2021/01/31 03:44:20;;;;;;;7.07;5.55;;;;;;;1.17;83.54;99028.56;5048290;28;20516;-74
2021/01/31 03:46:56;;;;;;;8.52;6.20;;;;;;;1.23;80.89;99030.63;5050102;28;20045;-74
2021/01/31 03:49:30;;;;;;;8.18;5.97;;;;;;;1.18;84.47;99032.78;5050294;28;20048;-74
2021/01/31 03:51:56;;;;;;;8.82;6.57;;;;;;;1.18;82.32;99037.19;5049674;28;20029;-74
2021/01/31 03:54:22;;;;;;;11.02;8.00;;;;;;;1.20;82.13;99032.69;5049844;28;20033;-74
2021/01/31 03:57:03;;;;;;;11.23;7.85;;;;;;;1.20;81.81;99035.28;5048508;28;20104;-74
2021/01/31 03:59:56;;;;;;;10.30;7.07;;;;;;;1.17;82.82;99025.09;5050145;28;20596;-74
2021/01/31 04:02:31;;;;;;;10.80;7.78;;;;;;;1.16;82.99;99029.50;5049098;28;20052;-74
2021/01/31 04:04:57;;;;;;;12.80;8.32;;;;;;;1.19;82.43;99031.00;5050131;28;20511;-74
2021/01/31 04:07:29;;;;;;;10.73;7.57;;;;;;;1.06;83.09;99034.63;5049889;28;20079;-74
2021/01/31 04:09:58;;;;;;;13.80;9.73;;;;;;;1.13;83.55;99039.34;5050526;28;20731;-74
2021/01/31 04:12:27;;;;;;;10.57;7.95;;;;;;;1.15;83.54;99040.88;5049527;28;20049;-74
2021/01/31 04:15:12;;;;;;;11.52;7.85;;;;;;;1.22;82.51;99038.59;5049551;28;20029;-74
2021/01/31 04:17:46;;;;;;;9.52;6.90;;;;;;;1.11;83.04;99036.88;5043296;28;20317;-74
2021/01/31 04:20:12;;;;;;;9.35;6.72;;;;;;;1.14;83.25;99038.38;5050382;28;20503;-74
2021/01/31 04:22:38;;;;;;;12.27;8.88;;;;;;;1.17;82.74;99036.38;5050624;28;20040;-74
2021/01/31 04:25:04;;;;;;;11.35;8.57;;;;;;;1.21;81.48;99032.53;5049704;28;20124;-74
2021/01/31 04:27:29;;;;;;;12.35;8.82;;;;;;;1.17;82.61;99035.50;5064464;28;20139;-74
2021/01/31 04:29:55;;;;;;;8.18;6.10;;;;;;;1.07;84.92;99030.25;5049626;28;20132;-74
2021/01/31 04:32:20;;;;;;;9.63;7.50;;;;;;;1.03;82.46;99029.69;5048591;28;20377;-74
2021/01/31 04:34:45;;;;;;;11.40;8.35;;;;;;;1.18;80.96;99034.56;5049462;28;20041;-74
2021/01/31 04:37:11;;;;;;;11.45;8.45;;;;;;;1.12;81.98;99037.69;5049621;28;20137;-73
2021/01/31 04:39:36;;;;;;;8.93;6.80;;;;;;;1.07;83.31;99035.47;5049192;28;20041;-74
2021/01/31 04:42:03;;;;;;;12.25;9.07;;;;;;;1.11;82.22;99039.47;5049190;28;20025;-74
2021/01/31 04:44:28;;;;;;;11.15;7.85;;;;;;;1.04;82.58;99026.13;5048371;28;20279;-74
2021/01/31 04:47:11;;;;;;;10.70;8.13;;;;;;;1.07;81.82;99030.25;5049373;28;20078;-74
2021/01/31 04:50:06;;;;;;;12.02;9.02;;;;;;;1.05;82.36;99030.41;5049356;28;20045;-74
2021/01/31 04:52:55;;;;;;;12.35;8.77;;;;;;;1.08;82.98;99025.91;5048468;28;20055;-74
2021/01/31 04:55:55;;;;;;;11.32;8.30;;;;;;;1.06;82.17;99039.03;5049374;28;20079;-74
2021/01/31 04:58:25;;;;;;;12.80;8.60;;;;;;;1.19;80.14;99042.28;5048390;28;20037;-74
2021/01/31 05:01:03;;;;;;;10.52;7.75;;;;;;;1.14;80.33;99043.59;5048998;28;20033;-74
2021/01/31 05:03:33;;;;;;;11.07;8.05;;;;;;;1.03;82.15;99047.09;5048866;28;20056;-74
2021/01/31 05:06:07;;;;;;;10.98;8.02;;;;;;;1.03;82.39;99045.31;5048881;28;20410;-74
2021/01/31 05:08:33;;;;;;;13.00;8.63;;;;;;;1.06;81.40;99052.03;5048843;28;20029;-74
2021/01/31 05:11:09;;;;;;;12.15;9.13;;;;;;;1.18;79.86;99053.63;5064525;28;20099;-73
2021/01/31 05:13:42;;;;;;;11.50;8.20;;;;;;;0.97;82.59;99053.63;5049294;28;20042;-74
2021/01/31 05:16:14;;;;;;;11.52;7.95;;;;;;;1.01;81.55;99051.59;5047889;28;20065;-74
2021/01/31 05:18:47;;;;;;;11.48;7.55;;;;;;;1.07;81.89;99061.50;5041701;28;20049;-74
2021/01/31 05:21:17;;;;;;;13.75;9.57;;;;;;;1.13;80.72;99054.97;5048728;28;20414;-74
2021/01/31 05:23:49;;;;;;;11.45;7.68;;;;;;;1.05;81.66;99055.63;5048708;28;20519;-75
2021/01/31 05:26:17;;;;;;;12.07;9.27;;;;;;;0.90;81.37;99060.28;5048331;28;20028;-75
2021/01/31 05:28:50;;;;;;;10.65;7.78;;;;;;;1.13;79.86;99070.59;5048735;28;20040;-74
2021/01/31 05:31:16;;;;;;;11.60;7.88;;;;;;;1.03;81.83;99065.31;5047472;28;20414;-74
2021/01/31 05:33:53;;;;;;;11.90;8.55;;;;;;;1.06;81.03;99073.69;5048688;28;20044;-74
2021/01/31 05:36:22;;;;;;;10.35;7.85;;;;;;;1.06;81.14;99076.28;5046524;28;20071;-74
2021/01/31 05:38:49;;;;;;;11.57;8.60;;;;;;;1.03;80.87;99075.72;5049420;28;20025;-74
2021/01/31 05:41:32;;;;;;;11.70;8.30;;;;;;;1.06;80.59;99086.69;5048063;28;20044;-74
2021/01/31 05:43:59;;;;;;;11.90;8.70;;;;;;;1.00;81.08;99079.41;5048397;28;20035;-73
2021/01/31 05:46:36;;;;;;;12.25;8.85;;;;;;;1.04;81.04;99078.19;5048581;28;20034;-74
2021/01/31 05:49:01;;;;;;;12.55;8.55;;;;;;;1.06;81.30;99076.28;5049478;28;20502;-74
2021/01/31 05:51:33;;;;;;;14.02;9.60;;;;;;;1.08;79.88;99077.97;5050597;28;20033;-74
2021/01/31 05:54:16;;;;;;;11.32;8.68;;;;;;;1.05;79.81;99084.25;5052495;28;20032;-74
2021/01/31 05:56:42;;;;;;;11.68;7.88;;;;;;;1.01;80.79;99083.66;5045262;28;20516;-74
2021/01/31 05:59:12;;;;;;;11.57;7.97;;;;;;;1.05;80.37;99081.66;5052420;28;20037;-74
2021/01/31 06:01:54;;;;;;;12.03;8.00;;;;;;;1.04;80.19;99086.00;5052613;28;20033;-74
2021/01/31 06:04:22;;;;;;;13.20;9.30;;;;;;;1.10;79.84;99092.50;5050147;28;20041;-74
2021/01/31 06:06:47;;;;;;;12.10;8.80;;;;;;;1.04;79.70;99100.78;5050813;28;20372;-74
2021/01/31 06:09:30;;;;;;;11.13;8.13;;;;;;;1.03;79.92;99105.19;5052305;28;20167;-74
2021/01/31 06:12:05;;;;;;;9.73;6.78;;;;;;;0.98;82.07;99109.13;5052216;28;20501;-75
2021/01/31 06:14:32;;;;;;;12.70;8.75;;;;;;;0.89;81.64;99096.88;5051531;28;20053;-74
2021/01/31 06:17:01;;;;;;;14.27;9.25;;;;;;;0.98;80.91;99096.13;5051228;28;20025;-74
2021/01/31 06:19:34;;;;;;;13.18;9.07;;;;;;;0.95;80.63;99101.53;5052020;28;20086;-74
2021/01/31 06:22:00;;;;;;;12.88;8.95;;;;;;;1.02;80.48;99106.13;5051584;28;20033;-74
2021/01/31 06:24:33;;;;;;;11.18;8.50;;;;;;;1.00;80.37;99102.00;5051097;28;20044;-74
2021/01/31 06:27:00;;;;;;;10.30;7.63;;;;;;;0.99;80.07;99103.78;5045565;28;20025;-74
2021/01/31 06:29:47;;;;;;;11.57;8.73;;;;;;;0.89;81.03;99115.91;5051970;28;20029;-75
2021/01/31 06:32:17;;;;;;;12.93;9.20;;;;;;;0.92;80.84;99114.81;5050874;28;20445;-74
2021/01/31 06:34:56;;;;;;;12.02;8.38;;;;;;;0.91;81.65;99118.38;5051608;28;20091;-74
2021/01/31 06:37:35;;;;;;;14.05;9.60;;;;;;;0.84;80.41;99118.06;5051371;28;20472;-74
2021/01/31 06:40:19;;;;;;;15.35;10.20;;;;;;;0.90;80.05;99124.53;5047150;28;20037;-74
2021/01/31 06:43:00;;;;;;;13.93;9.07;;;;;;;0.98;79.68;99122.13;5051345;28;20232;-74
2021/01/31 06:45:37;;;;;;;11.75;7.40;;;;;;;0.97;80.00;99125.69;5051969;28;20044;-74
2021/01/31 06:48:08;;;;;;;11.70;8.15;;;;;;;0.95;80.64;99117.16;5051029;28;20508;-75
2021/01/31 06:50:57;;;;;;;13.05;8.75;;;;;;;1.03;79.53;99123.41;5051461;28;20037;-74
2021/01/31 06:53:58;;;;;;;12.68;8.65;;;;;;;1.04;79.71;99129.44;5050875;28;20045;-74
2021/01/31 06:56:39;;;;;;;12.82;8.38;;;;;;;1.04;79.08;99121.63;5050524;28;20049;-74
2021/01/31 06:59:25;;;;;;;11.20;8.15;;;;;;;1.00;80.10;99131.47;5047257;28;20032;-73
2021/01/31 07:02:19;;;;;;;10.88;8.18;;;;;;;1.10;78.23;99131.53;5044650;28;20040;-74
2021/01/31 07:04:47;;;;;;;10.10;7.70;;;;;;;1.01;79.57;99142.69;5051243;28;20135;-75
2021/01/31 07:07:39;;;;;;;10.90;7.70;;;;;;;1.04;79.09;99143.25;5051104;28;20116;-74
2021/01/31 07:10:16;;;;;;;13.95;9.60;;;;;;;0.92;80.60;99146.88;5012414;28;20037;-74
2021/01/31 07:12:57;;;;;;;11.95;8.23;;;;;;;1.11;78.73;99148.81;5043467;28;20414;-75
2021/01/31 07:15:22;;;;;;;13.98;9.90;;;;;;;1.19;78.00;99149.03;5050730;28;20040;-73
2021/01/31 07:17:56;;;;;;;15.85;10.70;;;;;;;1.20;77.69;99152.44;5050792;28;20191;-73
2021/01/31 07:20:25;;;;;;;12.18;9.05;;;;;;;1.05;79.14;99152.75;5050457;28;20132;-74
2021/01/31 07:23:12;;;;;;;12.25;8.70;;;;;;;1.00;79.53;99165.31;5050645;28;20033;-74
2021/01/31 07:25:42;;;;;;;11.60;8.32;;;;;;;1.09;79.05;99168.09;5037665;28;20233;-73
2021/01/31 07:28:22;;;;;;;12.97;9.13;;;;;;;1.11;79.22;99159.22;5047027;28;20039;-74
2021/01/31 07:31:07;;;;;;;14.20;9.10;;;;;;;1.14;78.36;99173.75;5050676;28;20033;-74
2021/01/31 07:33:48;;;;;;;9.70;7.18;;;;;;;1.03;80.77;99157.25;5049508;28;20694;-74
2021/01/31 07:36:27;;;;;;;12.25;8.90;;;;;;;1.12;79.58;99162.63;5046713;28;20120;-74
2021/01/31 07:39:12;;;;;;;11.40;8.57;;;;;;;1.08;80.07;99158.66;5051045;28;20063;-74
2021/01/31 07:41:50;;;;;;;12.38;8.90;;;;;;;1.00;82.29;99167.06;5050696;28;20040;-74
2021/01/31 07:44:22;;;;;;;12.75;8.70;;;;;;;1.03;80.50;99170.25;5049762;28;20453;-74
2021/01/31 07:46:47;;;;;;;11.38;8.32;;;;;;;1.05;80.30;99170.97;5050436;28;20599;-74
2021/01/31 07:49:13;;;;;;;14.40;9.23;;;;;;;1.20;79.19;99174.09;5050631;28;20029;-74
2021/01/31 07:51:38;;;;;;;12.95;9.38;;;;;;;1.14;80.05;99176.38;5048523;28;20029;-74
2021/01/31 07:54:22;;;;;;;12.38;8.52;;;;;;;1.19;79.45;99171.59;5047531;28;20037;-74
2021/01/31 07:56:48;;;;;;;14.13;9.40;;;;;;;1.22;78.44;99179.19;5049965;28;20040;-74
2021/01/31 07:59:13;;;;;;;14.98;10.15;;;;;;;1.17;80.13;99192.56;5048854;28;20402;-73
2021/01/31 08:01:39;;;;;;;11.80;8.57;;;;;;;1.09;81.63;99188.94;5050117;28;20059;-74
2021/01/31 08:04:16;;;;;;;12.80;9.07;;;;;;;1.26;79.81;99185.78;5049223;28;20143;-74
2021/01/31 08:06:44;;;;;;;11.98;8.70;;;;;;;1.13;83.10;99195.56;5047342;28;20264;-74
2021/01/31 08:09:30;;;;;;;13.75;8.98;;;;;;;1.22;80.24;99187.81;5049738;28;20082;-74
2021/01/31 08:11:58;;;;;;;12.23;9.10;;;;;;;1.24;79.64;99198.94;5049322;28;20040;-74
2021/01/31 08:15:00;;;;;;;13.75;9.77;;;;;;;1.24;78.78;99183.31;5048716;28;20283;-74
2021/01/31 08:17:53;;;;;;;13.90;9.38;;;;;;;1.23;79.95;99178.22;5049658;28;20453;-74
2021/01/31 08:20:27;;;;;;;13.77;8.60;;;;;;;1.26;79.25;99180.56;5049292;28;20082;-73
2021/01/31 08:23:03;;;;;;;11.07;7.78;;;;;;;1.20;81.79;99188.91;5050263;28;20299;-73
2021/01/31 08:25:52;;;;;;;13.98;9.25;;;;;;;1.34;78.19;99191.19;5037826;28;20059;-73
2021/01/31 08:28:21;;;;;;;11.55;7.97;;;;;;;1.27;79.91;99192.66;5048785;28;20029;-73
2021/01/31 08:31:02;;;;;;;12.00;8.20;;;;;;;1.31;80.24;99198.41;5049542;28;20452;-73
2021/01/31 08:33:30;;;;;;;12.15;8.95;;;;;;;1.45;78.40;99201.56;5048525;28;20449;-74
2021/01/31 08:36:18;;;;;;;13.10;8.93;;;;;;;1.42;79.93;99203.59;5049801;28;20476;-73
2021/01/31 08:38:53;;;;;;;12.98;9.05;;;;;;;1.48;78.48;99200.50;5031969;28;20037;-73
2021/01/31 08:41:24;;;;;;;14.13;8.82;;;;;;;1.52;79.46;99208.84;5049859;28;20029;-73
2021/01/31 08:44:12;;;;;;;12.18;8.68;;;;;;;1.51;79.74;99210.66;5048553;28;20452;-74
2021/01/31 08:47:00;;;;;;;10.38;7.75;;;;;;;1.52;81.50;99212.28;5040262;28;20090;-73
2021/01/31 08:49:25;;;;;;;11.35;8.02;;;;;;;1.54;80.24;99207.78;5049243;28;20411;-74
2021/01/31 08:52:11;;;;;;;11.65;8.27;;;;;;;1.65;80.24;99212.94;5049632;28;20029;-74
2021/01/31 08:54:37;;;;;;;9.32;6.97;;;;;;;1.72;79.70;99200.22;5049317;28;20033;-74
2021/01/31 08:57:05;;;;;;;10.48;7.55;;;;;;;1.78;79.96;99207.53;5050697;28;20092;-74
2021/01/31 08:59:33;;;;;;;13.15;10.07;;;;;;;1.77;78.51;99205.88;5049673;28;20041;-74
2021/01/31 09:02:14;;;;;;;11.80;7.97;;;;;;;1.83;79.54;99201.91;5049874;28;20486;-74
2021/01/31 09:04:49;;;;;;;10.85;7.18;;;;;;;1.82;79.66;99193.28;5049418;28;20425;-73
2021/01/31 09:07:39;;;;;;;14.07;9.30;;;;;;;1.86;78.65;99188.63;5048995;28;20025;-75
2021/01/31 09:10:40;;;;;;;9.68;7.20;;;;;;;1.85;81.15;99186.97;5044649;28;20044;-74
2021/01/31 09:13:25;;;;;;;12.38;8.88;;;;;;;2.10;77.47;99178.75;5053326;28;20037;-73
2021/01/31 09:15:50;;;;;;;12.00;8.20;;;;;;;2.12;78.13;99181.19;5046434;28;20032;-73
2021/01/31 09:18:22;;;;;;;11.10;7.85;;;;;;;2.14;78.67;99189.72;5049542;28;20029;-74
2021/01/31 09:20:48;;;;;;;11.90;8.23;;;;;;;2.26;76.66;99185.25;5049500;28;20116;-73
2021/01/31 09:23:20;;;;;;;10.45;7.45;;;;;;;2.29;75.42;99175.38;5048908;28;20457;-74
2021/01/31 09:25:46;;;;;;;10.40;7.47;;;;;;;2.30;76.60;99171.00;5050815;28;20029;-73
2021/01/31 09:28:19;;;;;;;12.32;8.88;;;;;;;2.46;75.33;99173.94;5052426;28;20110;-74
2021/01/31 09:30:46;;;;;;;12.50;8.75;;;;;;;2.53;74.30;99167.22;5053929;28;20025;-73
2021/01/31 09:33:25;;;;;;;12.95;9.07;;;;;;;2.54;74.03;99168.03;5052673;28;20094;-72
2021/01/31 09:35:50;;;;;;;11.30;8.45;;;;;;;2.41;75.31;99173.50;5047071;28;20033;-73
2021/01/31 09:38:27;;;;;;;11.63;8.05;;;;;;;2.42;75.18;99180.38;5052836;28;20094;-73
2021/01/31 09:40:56;;;;;;;10.85;7.93;;;;;;;2.47;75.26;99182.56;5051760;28;20059;-74
2021/01/31 09:43:32;;;;;;;13.63;9.32;;;;;;;2.55;74.28;99170.53;5051581;28;20094;-73
2021/01/31 09:46:00;;;;;;;14.20;9.30;;;;;;;2.51;74.81;99174.34;5052907;28;20025;-73
2021/01/31 09:48:28;;;;;;;9.38;6.95;;;;;;;2.40;78.97;99165.81;5051843;28;20048;-72
2021/01/31 09:51:03;;;;;;;11.88;8.13;;;;;;;2.48;76.25;99172.00;5052647;28;20490;-73
2021/01/31 09:53:37;;;;;;;13.00;9.50;;;;;;;2.51;75.72;99176.97;5052190;28;20041;-73
2021/01/31 09:56:06;;;;;;;12.45;8.77;;;;;;;2.61;74.25;99181.38;5052418;28;20056;-73
2021/01/31 09:58:41;;;;;;;11.02;7.85;;;;;;;2.58;75.65;99189.47;5052174;28;20273;-74
2021/01/31 10:01:10;;;;;;;12.45;8.05;;;;;;;2.55;75.80;99194.00;5052540;28;20512;-73
2021/01/31 10:03:36;;;;;;;11.55;8.00;;;;;;;2.53;75.74;99192.50;5051164;28;20505;-74
2021/01/31 10:06:10;;;;;;;13.35;9.40;;;;;;;2.62;75.39;99191.69;5052215;28;20048;-74
2021/01/31 10:08:39;;;;;;;11.70;8.38;;;;;;;2.61;74.28;99189.22;5046864;28;20044;-74
2021/01/31 10:11:24;;;;;;;9.88;7.03;;;;;;;2.57;75.40;99193.03;5052213;28;20025;-73
2021/01/31 10:13:49;;;;;;;11.65;7.72;;;;;;;2.57;76.56;99190.44;5048405;28;20045;-74
2021/01/31 10:16:29;;;;;;;10.23;7.63;;;;;;;2.65;74.37;99186.19;5051960;28;20032;-74
2021/01/31 10:19:13;;;;;;;13.77;8.90;;;;;;;2.60;74.29;99187.53;5050191;28;20037;-73
2021/01/31 10:21:48;;;;;;;11.13;7.97;;;;;;;2.49;74.75;99178.88;5044469;28;20027;-73
2021/01/31 10:24:16;;;;;;;14.05;10.00;;;;;;;2.56;74.84;99184.38;5051634;28;20064;-73
2021/01/31 10:26:42;;;;;;;12.05;8.45;;;;;;;2.53;77.14;99198.53;5052384;28;20118;-74
2021/01/31 10:29:08;;;;;;;9.23;6.60;;;;;;;2.57;79.14;99204.28;5052535;28;20037;-74
2021/01/31 10:31:38;;;;;;;10.93;7.85;;;;;;;2.68;78.19;99219.84;5052327;28;20390;-74
2021/01/31 10:34:07;;;;;;;10.82;6.95;;;;;;;2.85;76.57;99201.91;5052227;28;20041;-74
2021/01/31 10:36:41;;;;;;;11.50;8.10;;;;;;;2.89;74.68;99198.88;5051570;28;20041;-74
2021/01/31 10:39:09;;;;;;;11.93;8.73;;;;;;;2.87;76.12;99192.16;5051350;28;20044;-74
2021/01/31 10:41:43;;;;;;;12.20;8.32;;;;;;;2.82;75.89;99195.16;5051434;28;20090;-75
2021/01/31 10:44:12;;;;;;;13.35;8.98;;;;;;;2.88;75.16;99186.78;5050023;28;20486;-74
2021/01/31 10:46:39;;;;;;;13.45;9.45;;;;;;;3.03;72.89;99186.38;5049707;28;20033;-74
2021/01/31 10:49:06;;;;;;;12.05;8.80;;;;;;;2.91;74.11;99186.53;5052041;28;20083;-74
2021/01/31 10:51:32;;;;;;;12.48;8.95;;;;;;;2.92;74.89;99187.34;5051460;28;20136;-73
2021/01/31 10:54:03;;;;;;;9.77;6.60;;;;;;;2.97;75.18;99177.31;5051807;28;20032;-75
2021/01/31 10:56:28;;;;;;;11.05;8.02;;;;;;;3.02;76.35;99166.44;5050985;28;20059;-74
2021/01/31 10:58:56;;;;;;;11.75;8.20;;;;;;;3.13;73.66;99174.16;5051508;28;20029;-74
2021/01/31 11:01:22;;;;;;;11.35;7.65;;;;;;;3.11;73.87;99173.47;5051011;28;20032;-74
2021/01/31 11:03:48;;;;;;;13.32;8.90;;;;;;;3.26;72.29;99168.66;5051435;28;20021;-73
2021/01/31 11:06:14;;;;;;;12.00;8.80;;;;;;;3.21;72.92;99163.03;5050364;28;20048;-74
2021/01/31 11:08:39;;;;;;;12.02;8.63;;;;;;;3.15;74.43;99160.00;5049537;28;20083;-74
2021/01/31 11:11:04;;;;;;;11.75;8.65;;;;;;;3.25;72.20;99151.34;5051615;28;20037;-74
2021/01/31 11:13:31;;;;;;;11.50;8.73;;;;;;;3.26;71.92;99145.13;5048332;28;20033;-74
2021/01/31 11:15:56;;;;;;;11.82;8.70;;;;;;;3.24;71.64;99149.66;5049158;28;20040;-74
2021/01/31 11:18:22;;;;;;;13.10;8.77;;;;;;;3.04;74.08;99151.47;5050426;28;20496;-74
2021/01/31 11:20:48;;;;;;;12.93;9.43;;;;;;;3.21;72.52;99153.38;5050567;28;20048;-74
2021/01/31 11:23:14;;;;;;;11.52;8.48;;;;;;;3.18;72.75;99144.03;5050791;28;20486;-74
2021/01/31 11:25:40;;;;;;;11.13;8.13;;;;;;;3.17;73.21;99145.03;5050682;28;20056;-73
2021/01/31 11:28:05;;;;;;;10.55;7.63;;;;;;;3.18;72.56;99143.22;5057888;28;20170;-74
2021/01/31 11:30:31;;;;;;;10.30;7.60;;;;;;;3.19;75.12;99140.47;5050432;28;20040;-74
2021/01/31 11:33:00;;;;;;;12.13;8.13;;;;;;;3.34;73.72;99137.44;5050700;28;20047;-73
2021/01/31 11:35:26;;;;;;;9.82;7.80;;;;;;;3.46;71.75;99133.72;5050190;28;20033;-74
2021/01/31 11:37:52;;;;;;;10.27;7.57;;;;;;;3.29;74.96;99130.03;5050917;28;20116;-73
2021/01/31 11:40:18;;;;;;;12.25;8.65;;;;;;;3.40;72.66;99135.06;5050146;28;20138;-74
2021/01/31 11:42:43;;;;;;;12.02;8.32;;;;;;;3.29;74.89;99137.84;5049991;28;20036;-74
2021/01/31 11:45:10;;;;;;;12.00;8.30;;;;;;;3.45;73.15;99139.06;5050568;28;20032;-74
2021/01/31 11:47:36;;;;;;;9.63;6.93;;;;;;;3.43;74.49;99136.56;5044492;28;20045;-74
2021/01/31 11:50:03;;;;;;;11.05;8.07;;;;;;;3.47;74.57;99137.13;5048898;28;20032;-74
2021/01/31 11:52:28;;;;;;;11.52;8.10;;;;;;;3.42;73.91;99140.16;5049604;28;20376;-75
2021/01/31 11:54:54;;;;;;;11.77;7.75;;;;;;;3.48;76.11;99139.63;5050160;28;20042;-74
2021/01/31 11:57:19;;;;;;;10.30;7.10;;;;;;;3.60;75.18;99142.91;5049771;28;20052;-74
2021/01/31 11:59:45;;;;;;;12.07;8.35;;;;;;;3.67;72.69;99141.38;5050188;28;20082;-74
2021/01/31 12:02:10;;;;;;;9.70;7.45;;;;;;;3.49;73.72;99135.22;5049314;28;20577;-75